Weather at Tribhuvan International Airport

Public forecast

Using degrees Celsius for public forecast. Weather courtesy of forecast.io.

Current aviation weather report (METAR) for Tribhuvan International Airport

Retrieved 2020/10/30 08:20 UTC (0 seconds ago):

VNKT 300820Z 24004KT 150V300 9999 FEW020 28/09 Q1018 NOSIG

Aviation forecast (TAF) for Tribhuvan International Airport

Retrieved 2020/10/30 06:54 UTC (1 hour ago):

TAF TAF VNKT 300500Z 3006/3106 29003KT 8000 FEW020 BECMG 3007/3008 24007KT 8000 FEW020 BECMG 3014/3015 13003KT 7000 FEW015 BECMG 3100/3102 10003KT 5000 BR FEW010 SCT030 BECMG 3104/3105 25004KT 7000 FEW020